Terminal Aerodrome Forecast
Issued by NWS

Home | Current Version | Previous Version | Text Only | Print | Product List | Glossary On
Versions: 1 2 3 4 5 6 7 8 9 10 11 12 13 14 15 16 17 18 19 20 21 22 23 24
000
FTUS43 KDLH 301700
TAFHIB
TAF
KHIB 301723Z 3018/3118 32011KT P6SM BKN015 OVC025
      TEMPO 3018/3022 3SM -SHRA BR BKN009 OVC025
     FM302200 33020G28KT P6SM SCT025 OVC035
     FM310200 34022G30KT P6SM FEW035
     FM310800 34014G22KT P6SM SKC
     FM311600 35010G17KT P6SM SKC=

USA.gov is the U.S. government's official web portal to all federal, state and local government web resources and services.